createdAt,value
2023-04-23T00:00:37.168Z,11.55
2023-04-23T00:03:10.341Z,11.52
2023-04-23T00:05:38.825Z,11.51
2023-04-23T00:08:07.215Z,11.49
2023-04-23T00:10:37.195Z,11.49
2023-04-23T00:13:05.233Z,11.52
2023-04-23T00:15:33.450Z,11.45
2023-04-23T00:18:01.522Z,11.41
2023-04-23T00:20:29.892Z,11.39
2023-04-23T00:22:57.674Z,11.37
2023-04-23T00:25:25.483Z,11.36
2023-04-23T00:27:53.372Z,11.33
2023-04-23T00:30:21.254Z,11.30
2023-04-23T00:32:49.019Z,11.29
2023-04-23T00:35:17.083Z,11.28
2023-04-23T00:37:44.868Z,11.29
2023-04-23T00:40:12.795Z,11.27
2023-04-23T00:42:40.858Z,11.24
2023-04-23T00:45:08.893Z,11.21
2023-04-23T00:47:36.892Z,11.20
2023-04-23T00:50:06.586Z,11.19
2023-04-23T00:52:36.111Z,11.18
2023-04-23T00:55:04.313Z,11.16
2023-04-23T00:57:32.645Z,11.15
2023-04-23T01:00:00.479Z,11.15
2023-04-23T01:02:28.694Z,11.12
2023-04-23T01:04:56.615Z,11.10
2023-04-23T01:07:25.554Z,11.10
2023-04-23T01:09:53.908Z,11.09
2023-04-23T01:12:21.854Z,11.08
2023-04-23T01:14:49.592Z,11.06
2023-04-23T01:17:17.823Z,11.04
2023-04-23T01:19:46.125Z,11.04
2023-04-23T01:22:14.449Z,11.02
2023-04-23T01:24:45.261Z,11.00
2023-04-23T01:27:13.044Z,10.98
2023-04-23T01:29:40.875Z,10.97
2023-04-23T01:32:08.830Z,10.97
2023-04-23T01:34:39.317Z,10.99
2023-04-23T01:37:07.334Z,10.96
2023-04-23T01:39:37.156Z,10.94
2023-04-23T01:42:07.116Z,10.93
2023-04-23T01:44:35.010Z,10.92
2023-04-23T01:47:03.357Z,10.92
2023-04-23T01:49:33.057Z,10.90
2023-04-23T01:52:00.950Z,10.90
2023-04-23T01:54:28.895Z,10.90
2023-04-23T01:56:59.013Z,10.89
2023-04-23T01:59:26.797Z,10.88
2023-04-23T02:01:54.740Z,10.86
2023-04-23T02:04:22.793Z,10.86
2023-04-23T02:06:52.909Z,10.85
2023-04-23T02:09:21.284Z,10.86
2023-04-23T02:11:49.551Z,10.72
2023-04-23T02:14:17.981Z,10.61
2023-04-23T02:16:47.326Z,10.60
2023-04-23T02:19:17.103Z,10.69
2023-04-23T02:21:45.268Z,10.70
2023-04-23T02:24:13.557Z,10.69
2023-04-23T02:26:41.944Z,10.67
2023-04-23T02:29:09.909Z,10.69
2023-04-23T02:31:37.967Z,10.70
2023-04-23T02:34:06.383Z,10.70
2023-04-23T02:36:34.493Z,10.69
2023-04-23T02:39:02.269Z,10.69
2023-04-23T02:41:30.349Z,10.66
2023-04-23T02:43:58.332Z,10.57
2023-04-23T02:46:26.200Z,10.52
2023-04-23T02:48:54.073Z,10.51
2023-04-23T02:51:21.919Z,10.53
2023-04-23T02:53:49.851Z,10.51
2023-04-23T02:56:17.666Z,10.51
2023-04-23T02:58:45.411Z,10.55
2023-04-23T03:01:13.224Z,10.53
2023-04-23T03:03:41.358Z,10.54
2023-04-23T03:06:09.824Z,10.57
2023-04-23T03:08:37.594Z,10.58
2023-04-23T03:11:06.267Z,10.54
2023-04-23T03:13:34.312Z,10.51
2023-04-23T03:16:04.658Z,10.46
2023-04-23T03:18:33.091Z,10.39
2023-04-23T03:21:01.096Z,10.42
2023-04-23T03:23:29.624Z,10.49
2023-04-23T03:25:58.000Z,10.54
2023-04-23T03:28:25.943Z,10.55
2023-04-23T03:30:53.793Z,10.60
2023-04-23T03:33:21.730Z,10.62
2023-04-23T03:35:49.577Z,10.65
2023-04-23T03:38:21.034Z,10.69
2023-04-23T03:40:50.863Z,10.72
2023-04-23T03:43:18.877Z,10.75
2023-04-23T03:46:18.902Z,10.79
2023-04-23T03:48:46.843Z,10.81
2023-04-23T03:51:20.568Z,10.81
2023-04-23T03:53:50.650Z,10.78
2023-04-23T03:56:37.469Z,10.77
2023-04-23T03:59:27.598Z,10.75
2023-04-23T04:01:58.568Z,10.75
2023-04-23T04:04:26.693Z,10.75
2023-04-23T04:06:56.771Z,10.74
2023-04-23T04:09:28.518Z,10.77
2023-04-23T04:11:56.327Z,10.77
2023-04-23T04:14:24.306Z,10.76
2023-04-23T04:16:52.213Z,10.77
2023-04-23T04:19:20.441Z,10.78
2023-04-23T04:21:48.381Z,10.80
2023-04-23T04:24:16.736Z,10.82
2023-04-23T04:26:45.399Z,10.84
2023-04-23T04:29:13.218Z,10.87
2023-04-23T04:31:41.137Z,10.89
2023-04-23T04:34:10.590Z,10.92
2023-04-23T04:36:38.484Z,10.93
2023-04-23T04:39:06.672Z,10.95
2023-04-23T04:41:34.548Z,10.99
2023-04-23T04:44:02.382Z,11.02
2023-04-23T04:46:31.926Z,11.06
2023-04-23T04:48:59.780Z,11.10
2023-04-23T04:51:28.526Z,11.14
2023-04-23T04:53:56.748Z,11.19
2023-04-23T04:56:25.981Z,11.25
2023-04-23T04:58:53.834Z,11.30
2023-04-23T05:01:23.331Z,11.34
2023-04-23T05:03:51.429Z,11.33
2023-04-23T05:06:19.442Z,11.33
2023-04-23T05:08:49.959Z,11.38
2023-04-23T05:11:18.192Z,11.41
2023-04-23T05:13:47.724Z,11.46
2023-04-23T05:16:15.988Z,11.54
2023-04-23T05:18:43.860Z,11.59
2023-04-23T05:21:11.643Z,11.64
2023-04-23T05:23:39.491Z,11.69
2023-04-23T05:26:07.685Z,11.75
2023-04-23T05:28:35.568Z,11.82
2023-04-23T05:31:03.388Z,11.85
2023-04-23T05:33:36.439Z,11.89
2023-04-23T05:36:10.851Z,11.95
2023-04-23T05:38:38.855Z,12.00
2023-04-23T05:41:06.752Z,12.06
2023-04-23T05:43:35.239Z,12.12
2023-04-23T05:46:06.446Z,12.19
2023-04-23T05:48:34.848Z,12.26
2023-04-23T05:51:03.008Z,12.33
2023-04-23T05:53:31.223Z,12.38
2023-04-23T05:55:59.132Z,12.43
2023-04-23T05:58:27.082Z,12.49
2023-04-23T06:00:55.347Z,12.55
2023-04-23T06:03:23.364Z,12.60
2023-04-23T06:05:51.542Z,12.66
2023-04-23T06:08:20.466Z,12.71
2023-04-23T06:10:48.502Z,12.76
2023-04-23T06:13:16.336Z,12.81
2023-04-23T06:15:44.159Z,12.85
2023-04-23T06:18:12.251Z,12.90
2023-04-23T06:20:40.327Z,12.95
2023-04-23T06:23:08.049Z,13.00
2023-04-23T06:25:36.369Z,13.05
2023-04-23T06:28:04.339Z,13.12
2023-04-23T06:30:35.492Z,13.20
2023-04-23T06:33:03.944Z,13.27
2023-04-23T06:35:31.844Z,13.36
2023-04-23T06:37:59.653Z,13.49
2023-04-23T06:40:27.387Z,13.62
2023-04-23T06:42:55.792Z,13.75
2023-04-23T06:45:55.226Z,13.93
2023-04-23T06:48:23.075Z,14.08
2023-04-23T06:50:51.108Z,14.21
2023-04-23T06:53:19.559Z,14.31
2023-04-23T06:55:49.842Z,14.40
2023-04-23T06:58:18.306Z,14.53
2023-04-23T07:00:46.286Z,14.63
2023-04-23T07:03:14.636Z,14.74
2023-04-23T07:05:42.584Z,14.88
2023-04-23T07:08:10.332Z,15.03
2023-04-23T07:10:38.360Z,15.16
2023-04-23T07:13:06.884Z,15.27
2023-04-23T07:15:34.765Z,15.46
2023-04-23T07:18:02.998Z,15.60
2023-04-23T07:20:31.753Z,15.75
2023-04-23T07:22:59.548Z,15.88
2023-04-23T07:25:27.332Z,16.02
2023-04-23T07:27:55.115Z,16.11
2023-04-23T07:30:23.372Z,16.18
2023-04-23T07:32:51.364Z,16.26
2023-04-23T07:35:19.284Z,16.36
2023-04-23T07:37:47.110Z,16.45
2023-04-23T07:40:14.924Z,16.49
2023-04-23T07:42:42.699Z,16.54
2023-04-23T07:45:11.552Z,16.59
2023-04-23T07:47:39.325Z,16.62
2023-04-23T07:50:07.797Z,16.63
2023-04-23T07:52:35.779Z,16.64
2023-04-23T07:55:03.633Z,16.71
2023-04-23T07:57:31.830Z,16.80
2023-04-23T07:59:59.675Z,16.85
2023-04-23T08:02:28.657Z,16.92
2023-04-23T08:04:56.879Z,16.97
2023-04-23T08:07:24.887Z,17.03
2023-04-23T08:09:52.686Z,17.10
2023-04-23T08:12:21.244Z,17.15
2023-04-23T08:14:50.865Z,17.20
2023-04-23T08:17:19.428Z,17.24
2023-04-23T08:19:47.165Z,17.28
2023-04-23T08:22:16.491Z,17.38
2023-04-23T08:24:44.627Z,17.50
2023-04-23T08:27:12.451Z,17.61
2023-04-23T08:29:40.821Z,17.71
2023-04-23T08:32:09.088Z,17.78
2023-04-23T08:34:37.347Z,17.76
2023-04-23T08:37:08.563Z,17.75
2023-04-23T08:39:40.684Z,17.79
2023-04-23T08:42:15.122Z,17.87
2023-04-23T08:44:45.851Z,17.87
2023-04-23T08:47:13.670Z,17.81
2023-04-23T08:49:41.863Z,17.72
2023-04-23T08:52:15.777Z,17.64
2023-04-23T08:54:45.975Z,17.58
2023-04-23T08:57:13.938Z,17.53
2023-04-23T08:59:42.071Z,17.44
2023-04-23T09:02:10.673Z,17.38
2023-04-23T09:04:39.155Z,17.32
2023-04-23T09:07:11.624Z,17.23
2023-04-23T09:09:41.003Z,17.16
2023-04-23T09:12:09.279Z,17.13
2023-04-23T09:14:37.447Z,17.09
2023-04-23T09:17:05.359Z,17.06
2023-04-23T09:19:33.234Z,17.04
2023-04-23T09:22:02.152Z,17.05
2023-04-23T09:24:30.665Z,17.06
2023-04-23T09:26:59.040Z,17.07
2023-04-23T09:29:27.059Z,17.06
2023-04-23T09:31:55.408Z,17.07
2023-04-23T09:34:23.940Z,17.08
2023-04-23T09:36:52.653Z,17.10
2023-04-23T09:39:23.990Z,17.13
2023-04-23T09:41:52.810Z,17.23
2023-04-23T09:44:24.185Z,17.29
2023-04-23T09:46:51.955Z,17.32
2023-04-23T09:49:20.033Z,17.36
2023-04-23T09:51:48.336Z,17.38
2023-04-23T09:54:23.517Z,17.38
2023-04-23T09:56:57.184Z,17.38
2023-04-23T09:59:39.500Z,17.32
2023-04-23T10:02:14.629Z,17.33
2023-04-23T10:04:42.855Z,17.35
2023-04-23T10:07:19.762Z,17.33
2023-04-23T10:09:48.214Z,17.28
2023-04-23T10:14:49.476Z,17.14
2023-04-23T10:17:17.247Z,17.04
2023-04-23T10:19:45.633Z,16.98
2023-04-23T10:24:45.716Z,16.93
2023-04-23T10:27:28.427Z,16.90
2023-04-23T10:30:01.149Z,16.88
2023-04-23T10:32:29.471Z,16.87
2023-04-23T10:34:57.688Z,16.85
2023-04-23T10:37:25.740Z,16.83
2023-04-23T10:39:56.759Z,16.84
2023-04-23T10:42:24.692Z,16.85
2023-04-23T10:44:59.430Z,16.86
2023-04-23T10:47:30.803Z,16.86
2023-04-23T10:49:58.533Z,16.85
2023-04-23T10:52:26.409Z,16.87
2023-04-23T10:54:57.440Z,16.87
2023-04-23T10:57:25.218Z,16.90
2023-04-23T10:59:54.047Z,16.93
2023-04-23T11:02:23.412Z,16.95
2023-04-23T11:04:55.107Z,16.96
2023-04-23T11:07:26.056Z,17.00
2023-04-23T11:09:56.539Z,17.02
2023-04-23T11:12:24.445Z,17.03
2023-04-23T11:14:52.852Z,17.05
2023-04-23T11:17:25.058Z,17.04
2023-04-23T11:20:13.602Z,17.03
2023-04-23T11:22:48.860Z,17.02
2023-04-23T11:25:27.349Z,17.02
2023-04-23T11:27:55.726Z,17.01
2023-04-23T11:30:24.473Z,17.01
2023-04-23T11:32:53.891Z,17.00
2023-04-23T11:35:22.990Z,16.98
2023-04-23T11:37:51.175Z,16.95
2023-04-23T11:40:19.615Z,16.93
2023-04-23T11:42:48.073Z,16.92
2023-04-23T11:45:16.874Z,16.91
2023-04-23T11:47:45.927Z,16.89
2023-04-23T11:50:17.577Z,16.90
2023-04-23T11:52:45.760Z,16.90
2023-04-23T11:55:14.064Z,16.91
2023-04-23T11:57:49.315Z,16.91
2023-04-23T12:00:17.928Z,16.89
2023-04-23T12:02:52.721Z,16.88
2023-04-23T12:05:24.195Z,16.87
2023-04-23T12:07:52.219Z,16.85
2023-04-23T12:10:20.992Z,16.86
2023-04-23T12:12:49.422Z,16.88
2023-04-23T12:15:17.261Z,16.88
2023-04-23T12:17:48.814Z,16.86
2023-04-23T12:20:21.193Z,16.86
2023-04-23T12:22:49.067Z,16.88
2023-04-23T12:25:17.217Z,16.88
2023-04-23T12:27:45.632Z,16.87
2023-04-23T12:30:13.832Z,16.87
2023-04-23T12:32:42.074Z,16.87
2023-04-23T12:35:11.226Z,16.86
2023-04-23T12:37:39.183Z,16.87
2023-04-23T12:40:07.331Z,16.85
2023-04-23T12:42:36.198Z,16.86
2023-04-23T12:45:07.975Z,16.88
2023-04-23T12:47:35.759Z,16.89
2023-04-23T12:50:05.799Z,16.90
2023-04-23T12:52:33.912Z,16.91
2023-04-23T12:55:01.773Z,16.94
2023-04-23T12:57:29.740Z,16.96
2023-04-23T12:59:57.500Z,16.96
2023-04-23T13:02:25.985Z,16.96
2023-04-23T13:04:59.650Z,16.95
2023-04-23T13:07:27.982Z,16.96
2023-04-23T13:09:57.272Z,16.98
2023-04-23T13:12:25.672Z,17.02
2023-04-23T13:14:53.547Z,17.03
2023-04-23T13:17:21.930Z,17.12
2023-04-23T13:19:49.923Z,17.24
2023-04-23T13:22:17.745Z,17.41
2023-04-23T13:24:45.669Z,17.71
2023-04-23T13:27:13.851Z,18.12
2023-04-23T13:29:42.139Z,18.61
2023-04-23T13:32:10.783Z,18.99
2023-04-23T13:34:38.828Z,19.41
2023-04-23T13:37:09.344Z,19.63
2023-04-23T13:39:38.806Z,19.77
2023-04-23T13:42:10.205Z,19.93
2023-04-23T13:44:38.466Z,19.99
2023-04-23T13:47:06.382Z,20.00
2023-04-23T13:49:34.241Z,20.01
2023-04-23T13:52:06.799Z,20.05
2023-04-23T13:54:39.357Z,20.10
2023-04-23T13:57:07.386Z,20.17
2023-04-23T13:59:35.567Z,20.12
2023-04-23T14:02:03.392Z,20.04
2023-04-23T14:04:31.299Z,19.98
2023-04-23T14:06:59.179Z,19.93
2023-04-23T14:09:27.099Z,19.90
2023-04-23T14:11:55.103Z,19.81
2023-04-23T14:14:23.159Z,19.76
2023-04-23T14:16:51.034Z,19.67
2023-04-23T14:19:19.149Z,19.60
2023-04-23T14:21:46.873Z,19.49
2023-04-23T14:24:18.782Z,19.41
2023-04-23T14:26:49.703Z,19.31
2023-04-23T14:29:19.285Z,19.23
2023-04-23T14:31:47.193Z,19.14
2023-04-23T14:34:14.992Z,19.14
2023-04-23T14:36:42.943Z,19.01
2023-04-23T14:39:09.596Z,19.06
2023-04-23T14:41:37.368Z,19.00
2023-04-23T14:44:04.142Z,18.93
2023-04-23T14:46:31.043Z,18.94
2023-04-23T14:48:57.802Z,18.96
2023-04-23T14:51:24.420Z,18.87
2023-04-23T14:53:51.273Z,18.89
2023-04-23T14:56:17.899Z,18.90
2023-04-23T14:58:44.589Z,18.89
2023-04-23T15:01:11.119Z,18.85
2023-04-23T15:03:37.823Z,18.80
2023-04-23T15:06:05.866Z,18.77
2023-04-23T15:08:32.882Z,18.72
2023-04-23T15:11:00.200Z,18.64
2023-04-23T15:13:38.430Z,18.58
2023-04-23T15:16:08.155Z,18.55
2023-04-23T15:18:35.450Z,18.55
2023-04-23T15:21:03.853Z,18.52
2023-04-23T15:23:31.366Z,18.48
2023-04-23T15:25:57.987Z,18.43
2023-04-23T15:28:25.218Z,18.36
2023-04-23T15:30:52.220Z,18.33
2023-04-23T15:33:21.866Z,18.28
2023-04-23T15:35:51.073Z,18.19
2023-04-23T15:38:18.399Z,18.21
2023-04-23T15:40:45.107Z,18.18
2023-04-23T15:43:14.819Z,18.13
2023-04-23T15:45:42.639Z,18.07
2023-04-23T15:48:09.566Z,18.01
2023-04-23T15:50:36.325Z,17.95
2023-04-23T15:53:02.872Z,17.91
2023-04-23T15:55:29.452Z,17.86
2023-04-23T15:57:56.078Z,17.83
2023-04-23T16:00:22.725Z,17.82
2023-04-23T16:02:49.431Z,17.79
2023-04-23T16:05:16.674Z,17.74
2023-04-23T16:07:44.450Z,17.69
2023-04-23T16:10:11.186Z,17.63
2023-04-23T16:12:37.819Z,17.59
2023-04-23T16:15:04.811Z,17.56
2023-04-23T16:17:31.499Z,17.51
2023-04-23T16:19:58.211Z,17.48
2023-04-23T16:22:25.600Z,17.44
2023-04-23T16:24:52.146Z,17.39
2023-04-23T16:27:18.685Z,17.34
2023-04-23T16:29:45.218Z,17.24
2023-04-23T16:32:11.780Z,17.15
2023-04-23T16:34:38.694Z,17.09
2023-04-23T16:37:05.756Z,17.04
2023-04-23T16:39:32.342Z,16.99
2023-04-23T16:41:59.030Z,16.92
2023-04-23T16:44:25.680Z,16.86
2023-04-23T16:46:52.804Z,16.81
2023-04-23T16:49:19.534Z,16.76
2023-04-23T16:51:46.104Z,16.70
2023-04-23T16:54:12.692Z,16.63
2023-04-23T16:56:39.361Z,16.56
2023-04-23T16:59:05.952Z,16.49
2023-04-23T17:01:32.657Z,16.43
2023-04-23T17:03:59.565Z,16.35
2023-04-23T17:06:27.456Z,16.28
2023-04-23T17:08:54.434Z,16.21
2023-04-23T17:11:23.030Z,16.12
2023-04-23T17:13:50.850Z,16.04
2023-04-23T17:16:17.801Z,15.96
2023-04-23T17:18:44.434Z,15.89
2023-04-23T17:21:11.133Z,15.82
2023-04-23T17:23:37.879Z,15.76
2023-04-23T17:26:04.442Z,15.67
2023-04-23T17:28:31.028Z,15.56
2023-04-23T17:30:57.577Z,15.47
2023-04-23T17:33:24.485Z,15.39
2023-04-23T17:35:52.425Z,15.30
2023-04-23T17:38:20.753Z,15.20
2023-04-23T17:40:47.654Z,15.11
2023-04-23T17:43:14.214Z,15.03
2023-04-23T17:45:41.528Z,14.91
2023-04-23T17:48:09.170Z,14.79
2023-04-23T17:50:35.824Z,14.68
2023-04-23T17:53:02.383Z,14.57
2023-04-23T17:55:28.975Z,14.45
2023-04-23T17:57:56.061Z,14.35
2023-04-23T18:00:23.194Z,14.26
2023-04-23T18:02:49.896Z,14.19
2023-04-23T18:05:16.669Z,14.16
2023-04-23T18:07:43.622Z,14.15
2023-04-23T18:10:10.560Z,14.11
2023-04-23T18:12:37.342Z,14.04
2023-04-23T18:15:04.328Z,13.98
2023-04-23T18:17:31.228Z,13.96
2023-04-23T18:19:58.932Z,13.91
2023-04-23T18:22:25.563Z,13.85
2023-04-23T18:24:52.592Z,13.78
2023-04-23T18:27:19.599Z,13.71
2023-04-23T18:29:46.303Z,13.64
2023-04-23T18:32:20.983Z,13.58
2023-04-23T18:34:54.476Z,13.51
2023-04-23T18:37:41.516Z,13.46
2023-04-23T18:40:08.868Z,13.40
2023-04-23T18:42:36.762Z,13.30
2023-04-23T18:45:04.459Z,13.21
2023-04-23T18:47:32.278Z,13.19
2023-04-23T18:50:02.722Z,13.17
2023-04-23T18:52:29.396Z,13.10
2023-04-23T18:54:55.952Z,13.03
2023-04-23T18:57:22.483Z,12.97
2023-04-23T18:59:49.013Z,12.89
2023-04-23T19:02:28.075Z,12.82
2023-04-23T19:05:01.480Z,12.73
2023-04-23T19:07:28.127Z,12.64
2023-04-23T19:09:54.833Z,12.58
2023-04-23T19:12:21.410Z,12.53
2023-04-23T19:14:48.094Z,12.49
2023-04-23T19:17:16.284Z,12.46
2023-04-23T19:19:44.649Z,12.45
2023-04-23T19:22:11.594Z,12.48
2023-04-23T19:24:38.170Z,12.49
2023-04-23T19:27:06.872Z,12.47
2023-04-23T19:29:33.437Z,12.43
2023-04-23T19:32:00.072Z,12.39
2023-04-23T19:34:27.179Z,12.39
2023-04-23T19:36:53.787Z,12.38
2023-04-23T19:39:23.455Z,12.35
2023-04-23T19:41:50.311Z,12.23
2023-04-23T19:44:17.126Z,12.12
2023-04-23T19:46:43.721Z,12.01
2023-04-23T19:49:10.495Z,11.89
2023-04-23T19:51:38.217Z,11.83
2023-04-23T19:54:04.912Z,11.83
2023-04-23T19:56:31.476Z,11.85
2023-04-23T19:58:58.207Z,11.88
2023-04-23T20:01:28.061Z,11.88
2023-04-23T20:03:55.202Z,11.88
2023-04-23T20:06:21.884Z,11.84
2023-04-23T20:09:07.742Z,11.75
2023-04-23T20:11:35.245Z,11.62
2023-04-23T20:14:02.097Z,11.52
2023-04-23T20:16:28.786Z,11.45
2023-04-23T20:18:58.381Z,11.39
2023-04-23T20:21:25.182Z,11.41
2023-04-23T20:23:51.766Z,11.47
2023-04-23T20:26:18.819Z,11.52
2023-04-23T20:28:47.482Z,11.56
2023-04-23T20:31:14.557Z,11.59
2023-04-23T20:33:41.451Z,11.60
2023-04-23T20:36:09.982Z,11.62
2023-04-23T20:38:38.000Z,11.55
2023-04-23T20:41:05.645Z,11.53
2023-04-23T20:43:33.141Z,11.49
2023-04-23T20:46:00.229Z,11.49
2023-04-23T20:48:29.291Z,11.48
2023-04-23T20:50:59.556Z,11.41
2023-04-23T20:53:26.415Z,11.36
2023-04-23T20:55:52.960Z,11.30
2023-04-23T20:58:19.724Z,11.26
2023-04-23T21:00:46.478Z,11.16
2023-04-23T21:03:13.412Z,11.02
2023-04-23T21:05:44.274Z,10.93
2023-04-23T21:08:11.331Z,10.97
2023-04-23T21:10:38.405Z,11.03
2023-04-23T21:13:06.719Z,11.08
2023-04-23T21:15:35.210Z,11.10
2023-04-23T21:18:02.809Z,11.12
2023-04-23T21:20:29.739Z,11.16
2023-04-23T21:22:56.278Z,11.16
2023-04-23T21:25:22.869Z,11.14
2023-04-23T21:27:49.628Z,11.10
2023-04-23T21:30:24.661Z,11.06
2023-04-23T21:32:52.315Z,10.97
2023-04-23T21:35:19.233Z,10.96
2023-04-23T21:37:45.974Z,10.96
2023-04-23T21:40:12.515Z,10.93
2023-04-23T21:42:39.528Z,10.92
2023-04-23T21:45:06.642Z,10.87
2023-04-23T21:47:33.180Z,10.73
2023-04-23T21:50:01.517Z,10.63
2023-04-23T21:52:28.420Z,10.62
2023-04-23T21:54:55.091Z,10.66
2023-04-23T21:57:21.648Z,10.72
2023-04-23T21:59:48.217Z,10.72
2023-04-23T22:02:15.631Z,10.69
2023-04-23T22:04:42.340Z,10.63
2023-04-23T22:07:12.560Z,10.54
2023-04-23T22:09:39.671Z,10.55
2023-04-23T22:12:06.682Z,10.61
2023-04-23T22:14:33.438Z,10.62
2023-04-23T22:17:02.022Z,10.57
2023-04-23T22:19:29.138Z,10.56
2023-04-23T22:21:55.693Z,10.57
2023-04-23T22:24:22.564Z,10.60
2023-04-23T22:26:49.311Z,10.60
2023-04-23T22:29:15.870Z,10.59
2023-04-23T22:31:42.622Z,10.56
2023-04-23T22:34:09.251Z,10.56
2023-04-23T22:36:36.010Z,10.51
2023-04-23T22:39:04.745Z,10.41
2023-04-23T22:41:33.156Z,10.35
2023-04-23T22:44:00.921Z,10.34
2023-04-23T22:46:28.126Z,10.31
2023-04-23T22:48:54.767Z,10.29
2023-04-23T22:51:21.348Z,10.28
2023-04-23T22:53:48.066Z,10.27
2023-04-23T22:56:14.694Z,10.28
2023-04-23T22:58:41.241Z,10.33
2023-04-23T23:01:07.896Z,10.33
2023-04-23T23:03:34.699Z,10.32
2023-04-23T23:06:01.424Z,10.28
2023-04-23T23:08:27.997Z,10.24
2023-04-23T23:10:54.587Z,10.25
2023-04-23T23:13:21.270Z,10.23
2023-04-23T23:15:47.906Z,10.10
2023-04-23T23:18:14.443Z,10.07
2023-04-23T23:20:41.229Z,10.07
2023-04-23T23:23:07.797Z,10.05
2023-04-23T23:25:38.250Z,9.99
2023-04-23T23:28:05.189Z,9.95
2023-04-23T23:30:31.847Z,9.88
2023-04-23T23:32:58.844Z,9.82
2023-04-23T23:35:25.647Z,9.80
2023-04-23T23:37:52.762Z,9.83
2023-04-23T23:40:19.361Z,9.83
2023-04-23T23:42:46.075Z,9.83
2023-04-23T23:45:13.213Z,9.81
2023-04-23T23:47:39.891Z,9.74
2023-04-23T23:50:06.923Z,9.70
2023-04-23T23:52:33.597Z,9.62
2023-04-23T23:55:00.219Z,9.59
2023-04-23T23:57:27.056Z,9.64
2023-04-23T23:59:53.704Z,9.67
